עמוד ראשי
METAR-TAF:

METAR-TAF

שדות תעופה :

דיארבקיר, טורקיה

קו רוחב: 37-53N, קו אורך: 040-11E, גובה: 686מטר

תצפית מזג אוויר נוכחית

הדו"ח נערך לפני 54דקות, בשעה 11:20 UTC
רוח 4קשר עם כיוונים משתנים עם משבים עד 14קשר
טמפרטורת 40 צלסיוס
לחות 13%
לחץ 1003 hPa
ראות 10 קילומטר או יותר
מעט עננים בגובה 4000רגל

METAR: LTCC 251120Z VRB04G14KT 9999 FEW040 40/06 Q1003 NOSIG

זמן: 15:14 (12:14 UTC)

תחזית

הדו"ח נערך לפני 1 שעות ו 34דקות, בשעה 10:40 UTC
תחזית בתוקף מ 25 ב 12 UTC עד 26 ב 12 UTC
רוח 10קשר מכיוון צפון/צפון-מערב
ראות 10 קילומטר או יותר
מעט עננים בגובה 4000רגל
יעשה מ
25 ב 15 UTC עד 25 ב 17 UTC
ראות 10 קילומטר או יותר
ללא עננים שבסיסם נמוך מ 5000 רגל או קומולונימבוס

TAF: LTCC 251040Z 2512/2612 33010KT 9999 FEW040 BECMG 2515/2517 CAVOK

תצפיות ותחזיות מזג אוויר לגבי יותר מ- 4,000 שדות תעופה ברחבי העולם. דוחות METAR ו- TAF.

התחנות הזמינות מסומנות בנקודות צהובות ואדומות על גבי המפה.

העבר את העכבר לנקודה הצבעונית על מנת לראות את שם התחנה.

לאחר מכן, לחץ כדי לראות את תוכן ואת תחזיות מזג האוויר.

כדי לשנות את המפה: לחץ על הכפתורים הירוקים עם הפלוס השחור כדי להתקרב; על הכפתור הירוק עם המקף כדי להתרחק; או בחיצים הירוקים למפות סמוכות.


METAR-TAF: